sensor_id;sensor_type;location;lat;lon;timestamp;temperature;humidity
23579;DHT22;11967;50.852;4.400;2022-09-09T00:00:32;19.30;99.90
23579;DHT22;11967;50.852;4.400;2022-09-09T00:03:14;19.30;99.90
23579;DHT22;11967;50.852;4.400;2022-09-09T00:06:07;19.30;99.90
23579;DHT22;11967;50.852;4.400;2022-09-09T00:08:51;19.30;99.90
23579;DHT22;11967;50.852;4.400;2022-09-09T00:11:26;19.30;99.90
23579;DHT22;11967;50.852;4.400;2022-09-09T00:13:54;19.20;99.90
23579;DHT22;11967;50.852;4.400;2022-09-09T00:16:25;19.20;99.90
23579;DHT22;11967;50.852;4.400;2022-09-09T00:21:30;19.00;99.90
23579;DHT22;11967;50.852;4.400;2022-09-09T00:23:57;19.10;99.90
23579;DHT22;11967;50.852;4.400;2022-09-09T00:31:43;19.00;99.90
23579;DHT22;11967;50.852;4.400;2022-09-09T00:36:39;19.10;99.90
23579;DHT22;11967;50.852;4.400;2022-09-09T00:39:05;19.10;99.90
23579;DHT22;11967;50.852;4.400;2022-09-09T00:44:35;19.20;99.90
23579;DHT22;11967;50.852;4.400;2022-09-09T00:56:17;19.20;99.90
23579;DHT22;11967;50.852;4.400;2022-09-09T00:58:22;19.20;99.90
23579;DHT22;11967;50.852;4.400;2022-09-09T01:00:57;19.20;99.90
23579;DHT22;11967;50.852;4.400;2022-09-09T01:06:00;19.00;99.90
23579;DHT22;11967;50.852;4.400;2022-09-09T01:11:30;19.10;99.90
23579;DHT22;11967;50.852;4.400;2022-09-09T01:17:12;19.10;99.90
23579;DHT22;11967;50.852;4.400;2022-09-09T01:27:22;19.00;99.90
23579;DHT22;11967;50.852;4.400;2022-09-09T01:29:48;19.10;99.90
23579;DHT22;11967;50.852;4.400;2022-09-09T01:32:42;19.10;99.90
23579;DHT22;11967;50.852;4.400;2022-09-09T01:37:46;18.90;99.90
23579;DHT22;11967;50.852;4.400;2022-09-09T01:40:12;18.90;99.90
23579;DHT22;11967;50.852;4.400;2022-09-09T01:42:38;18.90;99.90
23579;DHT22;11967;50.852;4.400;2022-09-09T01:45:04;18.90;99.90
23579;DHT22;11967;50.852;4.400;2022-09-09T01:47:30;18.90;99.90
23579;DHT22;11967;50.852;4.400;2022-09-09T01:49:55;18.90;99.90
23579;DHT22;11967;50.852;4.400;2022-09-09T01:52:21;18.90;99.90
23579;DHT22;11967;50.852;4.400;2022-09-09T01:54:47;18.90;99.90
23579;DHT22;11967;50.852;4.400;2022-09-09T02:00:44;18.90;99.90
23579;DHT22;11967;50.852;4.400;2022-09-09T02:03:26;18.80;99.90
23579;DHT22;11967;50.852;4.400;2022-09-09T02:06:00;18.80;99.90
23579;DHT22;11967;50.852;4.400;2022-09-09T02:08:45;18.80;99.90
23579;DHT22;11967;50.852;4.400;2022-09-09T02:11:14;18.80;99.90
23579;DHT22;11967;50.852;4.400;2022-09-09T02:13:43;18.80;99.90
23579;DHT22;11967;50.852;4.400;2022-09-09T02:16:30;18.80;99.90
23579;DHT22;11967;50.852;4.400;2022-09-09T02:19:02;18.90;99.90
23579;DHT22;11967;50.852;4.400;2022-09-09T02:21:32;18.80;99.90
23579;DHT22;11967;50.852;4.400;2022-09-09T02:24:03;18.90;99.90
23579;DHT22;11967;50.852;4.400;2022-09-09T02:26:31;18.90;99.90
23579;DHT22;11967;50.852;4.400;2022-09-09T02:29:01;19.00;99.90
23579;DHT22;11967;50.852;4.400;2022-09-09T02:31:28;19.10;99.90
23579;DHT22;11967;50.852;4.400;2022-09-09T02:33:58;19.10;99.90
23579;DHT22;11967;50.852;4.400;2022-09-09T02:36:29;19.00;99.90
23579;DHT22;11967;50.852;4.400;2022-09-09T02:39:08;19.00;99.90
23579;DHT22;11967;50.852;4.400;2022-09-09T02:41:37;18.90;99.90
23579;DHT22;11967;50.852;4.400;2022-09-09T02:44:12;18.90;99.90
23579;DHT22;11967;50.852;4.400;2022-09-09T02:58:14;18.90;99.90
23579;DHT22;11967;50.852;4.400;2022-09-09T03:00:43;18.90;99.90
23579;DHT22;11967;50.852;4.400;2022-09-09T03:03:09;18.80;99.90
23579;DHT22;11967;50.852;4.400;2022-09-09T03:05:35;18.80;99.90
23579;DHT22;11967;50.852;4.400;2022-09-09T03:08:01;18.80;99.90
23579;DHT22;11967;50.852;4.400;2022-09-09T03:10:28;18.90;99.90
23579;DHT22;11967;50.852;4.400;2022-09-09T03:12:54;18.90;99.90
23579;DHT22;11967;50.852;4.400;2022-09-09T03:15:20;18.80;99.90
23579;DHT22;11967;50.852;4.400;2022-09-09T03:17:46;18.80;99.90
23579;DHT22;11967;50.852;4.400;2022-09-09T03:20:12;18.70;99.90
23579;DHT22;11967;50.852;4.400;2022-09-09T03:22:38;18.70;99.90
23579;DHT22;11967;50.852;4.400;2022-09-09T03:25:04;18.60;99.90
23579;DHT22;11967;50.852;4.400;2022-09-09T03:27:31;18.60;99.90
23579;DHT22;11967;50.852;4.400;2022-09-09T03:29:56;18.70;99.90
23579;DHT22;11967;50.852;4.400;2022-09-09T03:32:23;18.70;99.90
23579;DHT22;11967;50.852;4.400;2022-09-09T03:34:51;18.60;99.90
23579;DHT22;11967;50.852;4.400;2022-09-09T03:37:17;18.70;99.90
23579;DHT22;11967;50.852;4.400;2022-09-09T03:39:43;18.60;99.90
23579;DHT22;11967;50.852;4.400;2022-09-09T03:42:11;18.60;99.90
23579;DHT22;11967;50.852;4.400;2022-09-09T03:44:39;18.50;99.90
23579;DHT22;11967;50.852;4.400;2022-09-09T03:47:05;18.50;99.90
23579;DHT22;11967;50.852;4.400;2022-09-09T03:49:31;18.50;99.90
23579;DHT22;11967;50.852;4.400;2022-09-09T03:51:57;18.60;99.90
23579;DHT22;11967;50.852;4.400;2022-09-09T03:54:24;18.60;99.90
23579;DHT22;11967;50.852;4.400;2022-09-09T03:56:50;18.60;99.90
23579;DHT22;11967;50.852;4.400;2022-09-09T03:59:15;18.60;99.90
23579;DHT22;11967;50.852;4.400;2022-09-09T04:01:41;18.50;99.90
23579;DHT22;11967;50.852;4.400;2022-09-09T04:04:07;18.50;99.90
23579;DHT22;11967;50.852;4.400;2022-09-09T04:06:33;18.50;99.90
23579;DHT22;11967;50.852;4.400;2022-09-09T04:08:59;18.50;99.90
23579;DHT22;11967;50.852;4.400;2022-09-09T04:11:25;18.40;99.90
23579;DHT22;11967;50.852;4.400;2022-09-09T04:13:50;18.40;99.90
23579;DHT22;11967;50.852;4.400;2022-09-09T04:16:16;18.30;99.90
23579;DHT22;11967;50.852;4.400;2022-09-09T04:18:42;18.30;99.90
23579;DHT22;11967;50.852;4.400;2022-09-09T04:21:09;18.40;99.90
23579;DHT22;11967;50.852;4.400;2022-09-09T04:23:35;18.40;99.90
23579;DHT22;11967;50.852;4.400;2022-09-09T04:26:02;18.40;99.90
23579;DHT22;11967;50.852;4.400;2022-09-09T04:28:30;18.40;99.90
23579;DHT22;11967;50.852;4.400;2022-09-09T04:30:56;18.40;99.90
23579;DHT22;11967;50.852;4.400;2022-09-09T04:33:27;18.40;99.90
23579;DHT22;11967;50.852;4.400;2022-09-09T04:35:53;18.40;99.90
23579;DHT22;11967;50.852;4.400;2022-09-09T04:38:19;18.40;99.90
23579;DHT22;11967;50.852;4.400;2022-09-09T04:40:50;18.50;99.90
23579;DHT22;11967;50.852;4.400;2022-09-09T04:43:17;18.40;99.90
23579;DHT22;11967;50.852;4.400;2022-09-09T04:45:46;18.40;99.90
23579;DHT22;11967;50.852;4.400;2022-09-09T04:48:12;18.20;99.90
23579;DHT22;11967;50.852;4.400;2022-09-09T04:50:38;18.30;99.90
23579;DHT22;11967;50.852;4.400;2022-09-09T04:53:04;18.10;99.90
23579;DHT22;11967;50.852;4.400;2022-09-09T04:55:32;18.10;99.90
23579;DHT22;11967;50.852;4.400;2022-09-09T04:57:57;18.10;99.90
23579;DHT22;11967;50.852;4.400;2022-09-09T05:00:24;18.00;99.90
23579;DHT22;11967;50.852;4.400;2022-09-09T05:02:50;18.00;99.90
23579;DHT22;11967;50.852;4.400;2022-09-09T05:05:16;18.10;99.90
23579;DHT22;11967;50.852;4.400;2022-09-09T05:07:43;18.10;99.90
23579;DHT22;11967;50.852;4.400;2022-09-09T05:10:09;18.20;99.90
23579;DHT22;11967;50.852;4.400;2022-09-09T05:12:36;18.10;99.90
23579;DHT22;11967;50.852;4.400;2022-09-09T05:15:01;18.10;99.90
23579;DHT22;11967;50.852;4.400;2022-09-09T05:17:27;18.00;99.90
23579;DHT22;11967;50.852;4.400;2022-09-09T05:19:53;18.10;99.90
23579;DHT22;11967;50.852;4.400;2022-09-09T05:22:21;18.10;99.90
23579;DHT22;11967;50.852;4.400;2022-09-09T05:24:49;18.10;99.90
23579;DHT22;11967;50.852;4.400;2022-09-09T05:27:17;18.10;99.90
23579;DHT22;11967;50.852;4.400;2022-09-09T05:29:43;18.10;99.90
23579;DHT22;11967;50.852;4.400;2022-09-09T05:32:10;18.10;99.90
23579;DHT22;11967;50.852;4.400;2022-09-09T05:34:35;18.10;99.90
23579;DHT22;11967;50.852;4.400;2022-09-09T05:37:03;18.10;99.90
23579;DHT22;11967;50.852;4.400;2022-09-09T05:39:29;18.10;99.90
23579;DHT22;11967;50.852;4.400;2022-09-09T05:41:55;18.20;99.90
23579;DHT22;11967;50.852;4.400;2022-09-09T05:44:21;18.10;99.90
23579;DHT22;11967;50.852;4.400;2022-09-09T05:46:48;18.20;99.90
23579;DHT22;11967;50.852;4.400;2022-09-09T05:49:14;18.20;99.90
23579;DHT22;11967;50.852;4.400;2022-09-09T05:51:41;18.20;99.90
23579;DHT22;11967;50.852;4.400;2022-09-09T05:54:08;18.30;99.90
23579;DHT22;11967;50.852;4.400;2022-09-09T05:56:34;18.30;99.90
23579;DHT22;11967;50.852;4.400;2022-09-09T05:58:59;18.40;99.90
23579;DHT22;11967;50.852;4.400;2022-09-09T06:01:29;18.30;99.90
23579;DHT22;11967;50.852;4.400;2022-09-09T06:03:56;18.40;99.90
23579;DHT22;11967;50.852;4.400;2022-09-09T06:06:25;18.30;99.90
23579;DHT22;11967;50.852;4.400;2022-09-09T06:08:55;18.30;99.90
23579;DHT22;11967;50.852;4.400;2022-09-09T06:11:25;18.30;99.90
23579;DHT22;11967;50.852;4.400;2022-09-09T06:13:52;18.30;99.90
23579;DHT22;11967;50.852;4.400;2022-09-09T06:16:23;18.20;99.90
23579;DHT22;11967;50.852;4.400;2022-09-09T06:18:51;18.20;99.90
23579;DHT22;11967;50.852;4.400;2022-09-09T06:21:19;18.20;99.90
23579;DHT22;11967;50.852;4.400;2022-09-09T06:23:46;18.20;99.90
23579;DHT22;11967;50.852;4.400;2022-09-09T06:26:18;18.20;99.90
23579;DHT22;11967;50.852;4.400;2022-09-09T06:28:45;18.20;99.90
23579;DHT22;11967;50.852;4.400;2022-09-09T06:31:12;18.30;99.90
23579;DHT22;11967;50.852;4.400;2022-09-09T06:33:42;18.40;99.90
23579;DHT22;11967;50.852;4.400;2022-09-09T06:36:13;18.30;99.90
23579;DHT22;11967;50.852;4.400;2022-09-09T06:38:40;18.30;99.90
23579;DHT22;11967;50.852;4.400;2022-09-09T06:41:12;18.30;99.90
23579;DHT22;11967;50.852;4.400;2022-09-09T06:43:38;18.20;99.90
23579;DHT22;11967;50.852;4.400;2022-09-09T06:46:07;18.30;99.90
23579;DHT22;11967;50.852;4.400;2022-09-09T06:48:33;18.30;99.90
23579;DHT22;11967;50.852;4.400;2022-09-09T06:51:08;18.30;99.90
23579;DHT22;11967;50.852;4.400;2022-09-09T06:53:37;18.20;99.90
23579;DHT22;11967;50.852;4.400;2022-09-09T06:58:47;18.20;99.90
23579;DHT22;11967;50.852;4.400;2022-09-09T07:01:16;18.20;99.90
23579;DHT22;11967;50.852;4.400;2022-09-09T07:03:45;18.20;99.90
23579;DHT22;11967;50.852;4.400;2022-09-09T07:06:14;18.20;99.90
23579;DHT22;11967;50.852;4.400;2022-09-09T07:08:42;18.20;99.90
23579;DHT22;11967;50.852;4.400;2022-09-09T07:11:09;18.20;99.90
23579;DHT22;11967;50.852;4.400;2022-09-09T07:13:35;18.30;99.90
23579;DHT22;11967;50.852;4.400;2022-09-09T07:16:09;18.20;99.90
23579;DHT22;11967;50.852;4.400;2022-09-09T07:18:36;18.30;99.90
23579;DHT22;11967;50.852;4.400;2022-09-09T07:21:03;18.30;99.90
23579;DHT22;11967;50.852;4.400;2022-09-09T07:23:30;18.30;99.90
23579;DHT22;11967;50.852;4.400;2022-09-09T07:25:59;18.20;99.90
23579;DHT22;11967;50.852;4.400;2022-09-09T07:28:25;18.30;99.90
23579;DHT22;11967;50.852;4.400;2022-09-09T07:31:00;18.30;99.90
23579;DHT22;11967;50.852;4.400;2022-09-09T07:33:31;18.20;99.90
23579;DHT22;11967;50.852;4.400;2022-09-09T07:36:08;18.20;99.90
23579;DHT22;11967;50.852;4.400;2022-09-09T07:38:46;18.30;99.90
23579;DHT22;11967;50.852;4.400;2022-09-09T07:41:18;18.40;99.90
23579;DHT22;11967;50.852;4.400;2022-09-09T07:43:46;18.30;99.90
23579;DHT22;11967;50.852;4.400;2022-09-09T07:46:14;18.20;99.90
23579;DHT22;11967;50.852;4.400;2022-09-09T07:48:45;18.10;99.90
23579;DHT22;11967;50.852;4.400;2022-09-09T07:51:15;18.10;99.90
23579;DHT22;11967;50.852;4.400;2022-09-09T07:53:46;18.10;99.90
23579;DHT22;11967;50.852;4.400;2022-09-09T07:56:16;18.20;99.90
23579;DHT22;11967;50.852;4.400;2022-09-09T07:58:49;18.10;99.90
23579;DHT22;11967;50.852;4.400;2022-09-09T08:01:21;18.10;99.90
23579;DHT22;11967;50.852;4.400;2022-09-09T08:03:57;18.10;99.90
23579;DHT22;11967;50.852;4.400;2022-09-09T08:06:28;18.20;99.90
23579;DHT22;11967;50.852;4.400;2022-09-09T08:08:55;18.20;99.90
23579;DHT22;11967;50.852;4.400;2022-09-09T08:11:22;18.20;99.90
23579;DHT22;11967;50.852;4.400;2022-09-09T08:13:49;18.10;99.90
23579;DHT22;11967;50.852;4.400;2022-09-09T08:16:20;18.20;99.90
23579;DHT22;11967;50.852;4.400;2022-09-09T08:18:48;18.20;99.90
23579;DHT22;11967;50.852;4.400;2022-09-09T08:21:16;18.20;99.90
23579;DHT22;11967;50.852;4.400;2022-09-09T08:23:44;18.30;99.90
23579;DHT22;11967;50.852;4.400;2022-09-09T08:26:16;18.50;99.90
23579;DHT22;11967;50.852;4.400;2022-09-09T08:28:43;18.40;99.90
23579;DHT22;11967;50.852;4.400;2022-09-09T08:31:15;18.30;99.90
23579;DHT22;11967;50.852;4.400;2022-09-09T08:33:42;18.40;99.90
23579;DHT22;11967;50.852;4.400;2022-09-09T08:36:22;18.40;99.90
23579;DHT22;11967;50.852;4.400;2022-09-09T08:38:50;18.50;99.90
23579;DHT22;11967;50.852;4.400;2022-09-09T08:43:46;18.30;99.90
23579;DHT22;11967;50.852;4.400;2022-09-09T08:49:06;18.40;99.90
23579;DHT22;11967;50.852;4.400;2022-09-09T08:51:37;18.30;99.90
23579;DHT22;11967;50.852;4.400;2022-09-09T08:54:03;18.30;99.90
23579;DHT22;11967;50.852;4.400;2022-09-09T08:56:31;18.30;99.90
23579;DHT22;11967;50.852;4.400;2022-09-09T08:58:59;18.30;99.90
23579;DHT22;11967;50.852;4.400;2022-09-09T09:12:06;18.30;99.90
23579;DHT22;11967;50.852;4.400;2022-09-09T09:14:35;18.30;99.90
23579;DHT22;11967;50.852;4.400;2022-09-09T09:17:10;18.30;99.90
23579;DHT22;11967;50.852;4.400;2022-09-09T09:19:39;18.30;99.90
23579;DHT22;11967;50.852;4.400;2022-09-09T09:27:58;18.40;99.90
23579;DHT22;11967;50.852;4.400;2022-09-09T09:30:29;18.30;99.90
23579;DHT22;11967;50.852;4.400;2022-09-09T09:35:49;18.30;99.90
23579;DHT22;11967;50.852;4.400;2022-09-09T09:38:24;18.30;99.90
23579;DHT22;11967;50.852;4.400;2022-09-09T09:40:52;18.30;99.90
23579;DHT22;11967;50.852;4.400;2022-09-09T09:43:25;18.30;99.90
23579;DHT22;11967;50.852;4.400;2022-09-09T09:45:51;18.30;99.90
23579;DHT22;11967;50.852;4.400;2022-09-09T09:48:17;18.30;99.90
23579;DHT22;11967;50.852;4.400;2022-09-09T09:53:34;18.40;99.90
23579;DHT22;11967;50.852;4.400;2022-09-09T09:58:30;18.40;99.90
23579;DHT22;11967;50.852;4.400;2022-09-09T10:00:57;18.50;99.90
23579;DHT22;11967;50.852;4.400;2022-09-09T10:03:30;18.50;99.90
23579;DHT22;11967;50.852;4.400;2022-09-09T10:05:56;18.50;99.90
23579;DHT22;11967;50.852;4.400;2022-09-09T10:08:27;18.40;99.90
23579;DHT22;11967;50.852;4.400;2022-09-09T10:19:34;18.30;99.90
23579;DHT22;11967;50.852;4.400;2022-09-09T10:22:02;18.40;99.90
23579;DHT22;11967;50.852;4.400;2022-09-09T10:30:18;18.40;99.90
23579;DHT22;11967;50.852;4.400;2022-09-09T10:33:03;18.30;99.90
23579;DHT22;11967;50.852;4.400;2022-09-09T10:35:49;18.30;99.90
23579;DHT22;11967;50.852;4.400;2022-09-09T10:38:32;18.40;99.90
23579;DHT22;11967;50.852;4.400;2022-09-09T10:52:05;18.70;99.90
23579;DHT22;11967;50.852;4.400;2022-09-09T10:55:00;18.70;99.90
23579;DHT22;11967;50.852;4.400;2022-09-09T10:57:48;18.70;99.90
23579;DHT22;11967;50.852;4.400;2022-09-09T11:00:20;18.70;99.90
23579;DHT22;11967;50.852;4.400;2022-09-09T11:03:01;18.70;99.90
23579;DHT22;11967;50.852;4.400;2022-09-09T11:05:43;18.70;99.90
23579;DHT22;11967;50.852;4.400;2022-09-09T11:08:20;18.80;99.90
23579;DHT22;11967;50.852;4.400;2022-09-09T11:11:04;18.80;99.90
23579;DHT22;11967;50.852;4.400;2022-09-09T11:19:14;18.80;99.90
23579;DHT22;11967;50.852;4.400;2022-09-09T11:21:46;18.70;99.90
23579;DHT22;11967;50.852;4.400;2022-09-09T11:24:32;18.70;99.90
23579;DHT22;11967;50.852;4.400;2022-09-09T11:27:03;18.80;99.90
23579;DHT22;11967;50.852;4.400;2022-09-09T11:35:30;18.90;99.90
23579;DHT22;11967;50.852;4.400;2022-09-09T11:38:21;18.90;99.90
23579;DHT22;11967;50.852;4.400;2022-09-09T11:41:15;18.90;99.90
23579;DHT22;11967;50.852;4.400;2022-09-09T11:43:43;19.00;99.90
23579;DHT22;11967;50.852;4.400;2022-09-09T11:46:10;19.10;99.90
23579;DHT22;11967;50.852;4.400;2022-09-09T11:48:39;19.00;99.90
23579;DHT22;11967;50.852;4.400;2022-09-09T11:56:30;19.00;99.90
23579;DHT22;11967;50.852;4.400;2022-09-09T11:59:05;18.90;99.90
23579;DHT22;11967;50.852;4.400;2022-09-09T12:01:34;19.00;99.90
23579;DHT22;11967;50.852;4.400;2022-09-09T12:04:05;19.00;99.90
23579;DHT22;11967;50.852;4.400;2022-09-09T12:06:33;19.00;99.90
23579;DHT22;11967;50.852;4.400;2022-09-09T12:11:41;19.10;99.90
23579;DHT22;11967;50.852;4.400;2022-09-09T12:14:22;19.20;99.90
23579;DHT22;11967;50.852;4.400;2022-09-09T12:16:48;19.20;99.90
23579;DHT22;11967;50.852;4.400;2022-09-09T12:19:15;19.10;99.90
23579;DHT22;11967;50.852;4.400;2022-09-09T12:21:44;19.20;99.90
23579;DHT22;11967;50.852;4.400;2022-09-09T12:24:14;19.20;99.90
23579;DHT22;11967;50.852;4.400;2022-09-09T12:27:01;19.20;99.90
23579;DHT22;11967;50.852;4.400;2022-09-09T12:30:07;19.10;99.90
23579;DHT22;11967;50.852;4.400;2022-09-09T12:32:34;19.10;99.90
23579;DHT22;11967;50.852;4.400;2022-09-09T12:35:09;19.10;99.90
23579;DHT22;11967;50.852;4.400;2022-09-09T12:38:00;19.20;99.90
23579;DHT22;11967;50.852;4.400;2022-09-09T12:40:33;19.30;99.90
23579;DHT22;11967;50.852;4.400;2022-09-09T12:43:02;19.30;99.90
23579;DHT22;11967;50.852;4.400;2022-09-09T12:45:32;19.50;99.90
23579;DHT22;11967;50.852;4.400;2022-09-09T12:48:00;19.40;99.90
23579;DHT22;11967;50.852;4.400;2022-09-09T12:50:36;19.40;99.90
23579;DHT22;11967;50.852;4.400;2022-09-09T12:53:09;19.40;99.90
23579;DHT22;11967;50.852;4.400;2022-09-09T12:55:37;19.60;99.90
23579;DHT22;11967;50.852;4.400;2022-09-09T12:58:05;19.60;99.90
23579;DHT22;11967;50.852;4.400;2022-09-09T13:00:32;19.70;99.90
23579;DHT22;11967;50.852;4.400;2022-09-09T13:03:01;19.60;99.90
23579;DHT22;11967;50.852;4.400;2022-09-09T13:05:38;19.70;99.90
23579;DHT22;11967;50.852;4.400;2022-09-09T13:08:09;19.70;99.90
23579;DHT22;11967;50.852;4.400;2022-09-09T13:10:45;19.60;99.90
23579;DHT22;11967;50.852;4.400;2022-09-09T13:13:19;19.60;99.90
23579;DHT22;11967;50.852;4.400;2022-09-09T13:15:53;19.50;99.90
23579;DHT22;11967;50.852;4.400;2022-09-09T13:18:23;19.60;99.90
23579;DHT22;11967;50.852;4.400;2022-09-09T13:20:50;19.60;99.90
23579;DHT22;11967;50.852;4.400;2022-09-09T13:23:18;19.60;99.90
23579;DHT22;11967;50.852;4.400;2022-09-09T13:25:59;19.70;99.90
23579;DHT22;11967;50.852;4.400;2022-09-09T13:28:29;19.70;99.90
23579;DHT22;11967;50.852;4.400;2022-09-09T13:31:03;19.80;99.90
23579;DHT22;11967;50.852;4.400;2022-09-09T13:33:39;19.90;99.90
23579;DHT22;11967;50.852;4.400;2022-09-09T13:36:08;19.80;99.90
23579;DHT22;11967;50.852;4.400;2022-09-09T13:38:53;19.90;99.90
23579;DHT22;11967;50.852;4.400;2022-09-09T13:41:22;20.00;99.90
23579;DHT22;11967;50.852;4.400;2022-09-09T13:43:50;20.10;99.90
23579;DHT22;11967;50.852;4.400;2022-09-09T13:46:32;20.10;99.90
23579;DHT22;11967;50.852;4.400;2022-09-09T13:51:45;20.10;99.90
23579;DHT22;11967;50.852;4.400;2022-09-09T13:54:14;20.20;99.90
23579;DHT22;11967;50.852;4.400;2022-09-09T13:56:41;20.20;99.90
23579;DHT22;11967;50.852;4.400;2022-09-09T13:59:18;20.20;99.90
23579;DHT22;11967;50.852;4.400;2022-09-09T14:01:45;20.20;99.90
23579;DHT22;11967;50.852;4.400;2022-09-09T14:04:11;20.20;99.90
23579;DHT22;11967;50.852;4.400;2022-09-09T14:06:37;20.20;99.90
23579;DHT22;11967;50.852;4.400;2022-09-09T14:09:05;20.20;99.90
23579;DHT22;11967;50.852;4.400;2022-09-09T14:11:31;20.20;99.90
23579;DHT22;11967;50.852;4.400;2022-09-09T14:13:57;20.20;99.90
23579;DHT22;11967;50.852;4.400;2022-09-09T14:16:22;20.20;99.90
23579;DHT22;11967;50.852;4.400;2022-09-09T14:18:48;20.10;99.90
23579;DHT22;11967;50.852;4.400;2022-09-09T14:21:14;20.10;99.90
23579;DHT22;11967;50.852;4.400;2022-09-09T14:23:41;20.00;99.90
23579;DHT22;11967;50.852;4.400;2022-09-09T14:26:07;20.10;99.90
23579;DHT22;11967;50.852;4.400;2022-09-09T14:28:33;20.00;99.90
23579;DHT22;11967;50.852;4.400;2022-09-09T14:31:03;20.00;99.90
23579;DHT22;11967;50.852;4.400;2022-09-09T14:33:29;20.00;99.90
23579;DHT22;11967;50.852;4.400;2022-09-09T14:35:59;20.10;99.90
23579;DHT22;11967;50.852;4.400;2022-09-09T14:38:29;20.10;99.90
23579;DHT22;11967;50.852;4.400;2022-09-09T14:40:55;20.20;99.90
23579;DHT22;11967;50.852;4.400;2022-09-09T14:43:21;20.30;99.90
23579;DHT22;11967;50.852;4.400;2022-09-09T14:45:47;20.40;99.90
23579;DHT22;11967;50.852;4.400;2022-09-09T14:48:17;20.50;99.90
23579;DHT22;11967;50.852;4.400;2022-09-09T14:50:43;20.50;99.90
23579;DHT22;11967;50.852;4.400;2022-09-09T14:53:09;20.50;99.90
23579;DHT22;11967;50.852;4.400;2022-09-09T14:55:36;20.40;99.90
23579;DHT22;11967;50.852;4.400;2022-09-09T14:58:02;20.50;99.90
23579;DHT22;11967;50.852;4.400;2022-09-09T15:00:27;20.50;99.90
23579;DHT22;11967;50.852;4.400;2022-09-09T15:02:54;20.50;99.90
23579;DHT22;11967;50.852;4.400;2022-09-09T15:05:19;20.50;99.90
23579;DHT22;11967;50.852;4.400;2022-09-09T15:07:45;20.60;99.90
23579;DHT22;11967;50.852;4.400;2022-09-09T15:10:11;20.60;99.90
23579;DHT22;11967;50.852;4.400;2022-09-09T15:12:37;20.50;99.90
23579;DHT22;11967;50.852;4.400;2022-09-09T15:15:04;20.50;99.90
23579;DHT22;11967;50.852;4.400;2022-09-09T15:17:30;20.40;99.90
23579;DHT22;11967;50.852;4.400;2022-09-09T15:19:56;20.40;99.90
23579;DHT22;11967;50.852;4.400;2022-09-09T15:22:22;20.50;99.90
23579;DHT22;11967;50.852;4.400;2022-09-09T15:24:49;20.60;99.90
23579;DHT22;11967;50.852;4.400;2022-09-09T15:27:15;20.60;99.90
23579;DHT22;11967;50.852;4.400;2022-09-09T15:29:41;20.70;99.90
23579;DHT22;11967;50.852;4.400;2022-09-09T15:32:07;20.60;99.90
23579;DHT22;11967;50.852;4.400;2022-09-09T15:34:33;20.60;99.90
23579;DHT22;11967;50.852;4.400;2022-09-09T15:36:58;20.50;99.90
23579;DHT22;11967;50.852;4.400;2022-09-09T15:39:25;20.50;99.90
23579;DHT22;11967;50.852;4.400;2022-09-09T15:41:51;20.40;99.90
23579;DHT22;11967;50.852;4.400;2022-09-09T15:44:17;20.40;99.90
23579;DHT22;11967;50.852;4.400;2022-09-09T15:46:53;20.40;99.90
23579;DHT22;11967;50.852;4.400;2022-09-09T15:49:26;20.40;99.90
23579;DHT22;11967;50.852;4.400;2022-09-09T15:51:57;20.40;99.90
23579;DHT22;11967;50.852;4.400;2022-09-09T15:54:24;20.50;99.90
23579;DHT22;11967;50.852;4.400;2022-09-09T15:56:55;20.50;99.90
23579;DHT22;11967;50.852;4.400;2022-09-09T15:59:22;20.70;99.90
23579;DHT22;11967;50.852;4.400;2022-09-09T16:01:48;20.70;99.90
23579;DHT22;11967;50.852;4.400;2022-09-09T16:04:19;20.70;99.90
23579;DHT22;11967;50.852;4.400;2022-09-09T16:06:59;20.70;99.90
23579;DHT22;11967;50.852;4.400;2022-09-09T16:09:26;20.50;99.90
23579;DHT22;11967;50.852;4.400;2022-09-09T16:11:52;20.50;99.90
23579;DHT22;11967;50.852;4.400;2022-09-09T16:14:19;20.50;99.90
23579;DHT22;11967;50.852;4.400;2022-09-09T16:16:45;20.50;99.90
23579;DHT22;11967;50.852;4.400;2022-09-09T16:19:12;20.50;99.90
23579;DHT22;11967;50.852;4.400;2022-09-09T16:21:41;20.50;99.90
23579;DHT22;11967;50.852;4.400;2022-09-09T16:24:08;20.40;99.90
23579;DHT22;11967;50.852;4.400;2022-09-09T16:26:36;20.40;99.90
23579;DHT22;11967;50.852;4.400;2022-09-09T16:29:03;20.40;99.90
23579;DHT22;11967;50.852;4.400;2022-09-09T16:31:30;20.50;99.90
23579;DHT22;11967;50.852;4.400;2022-09-09T16:33:57;20.40;99.90
23579;DHT22;11967;50.852;4.400;2022-09-09T16:36:25;20.40;99.90
23579;DHT22;11967;50.852;4.400;2022-09-09T16:38:56;20.40;99.90
23579;DHT22;11967;50.852;4.400;2022-09-09T16:41:23;20.30;99.90
23579;DHT22;11967;50.852;4.400;2022-09-09T16:44:00;20.10;99.90
23579;DHT22;11967;50.852;4.400;2022-09-09T16:46:29;20.10;99.90
23579;DHT22;11967;50.852;4.400;2022-09-09T16:49:00;20.00;99.90
23579;DHT22;11967;50.852;4.400;2022-09-09T16:51:29;20.00;99.90
23579;DHT22;11967;50.852;4.400;2022-09-09T16:53:56;20.00;99.90
23579;DHT22;11967;50.852;4.400;2022-09-09T16:56:25;20.10;99.90
23579;DHT22;11967;50.852;4.400;2022-09-09T16:58:53;20.10;99.90
23579;DHT22;11967;50.852;4.400;2022-09-09T17:01:21;20.10;99.90
23579;DHT22;11967;50.852;4.400;2022-09-09T17:03:46;20.10;99.90
23579;DHT22;11967;50.852;4.400;2022-09-09T17:06:14;20.10;99.90
23579;DHT22;11967;50.852;4.400;2022-09-09T17:08:42;20.20;99.90
23579;DHT22;11967;50.852;4.400;2022-09-09T17:11:12;20.20;99.90
23579;DHT22;11967;50.852;4.400;2022-09-09T17:13:41;20.20;99.90
23579;DHT22;11967;50.852;4.400;2022-09-09T17:16:06;20.20;99.90
23579;DHT22;11967;50.852;4.400;2022-09-09T17:18:34;20.30;99.90
23579;DHT22;11967;50.852;4.400;2022-09-09T17:21:08;20.30;99.90
23579;DHT22;11967;50.852;4.400;2022-09-09T17:23:34;20.30;99.90
23579;DHT22;11967;50.852;4.400;2022-09-09T17:26:05;20.30;99.90
23579;DHT22;11967;50.852;4.400;2022-09-09T17:28:31;20.20;99.90
23579;DHT22;11967;50.852;4.400;2022-09-09T17:31:00;20.20;99.90
23579;DHT22;11967;50.852;4.400;2022-09-09T17:33:27;20.20;99.90
23579;DHT22;11967;50.852;4.400;2022-09-09T17:35:57;20.10;99.90
23579;DHT22;11967;50.852;4.400;2022-09-09T17:38:23;20.20;99.90
23579;DHT22;11967;50.852;4.400;2022-09-09T17:40:49;20.10;99.90
23579;DHT22;11967;50.852;4.400;2022-09-09T17:43:16;20.10;99.90
23579;DHT22;11967;50.852;4.400;2022-09-09T17:45:42;20.10;99.90
23579;DHT22;11967;50.852;4.400;2022-09-09T17:48:10;20.00;99.90
23579;DHT22;11967;50.852;4.400;2022-09-09T17:50:36;19.80;99.90
23579;DHT22;11967;50.852;4.400;2022-09-09T17:53:02;19.70;99.90
23579;DHT22;11967;50.852;4.400;2022-09-09T17:55:28;19.60;99.90
23579;DHT22;11967;50.852;4.400;2022-09-09T17:57:54;19.70;99.90
23579;DHT22;11967;50.852;4.400;2022-09-09T18:00:19;19.70;99.90